Cleveland, OH (44116)

1:42 AM EDT on July 30, 2015 (GMT -0400)
APRSWXNET | | Change Station
CLOSE
Current Station
Personal Weather Station
Location: Cleveland, OH
Elevation: 690 ft
Nearby Weather Stations

Elev 690 ft 41.47 °N, 81.65 °W | Updated 26 minutes ago

Overcast
Overcast
77 °F
Feels Like 79 °F
N
0
Wind Variable Wind from West
Gusts 0.0 mph

Today
High -- | Low -- °F
--% Chance of Precip.
Yesterday
High -- | Low -- °F
Precip. -- in
6:19 AM 8:46 PM
Waxing Gibbous, 98% visible
Pressure 29.91 in
Visibility 10.0 miles
Clouds Few 1800 ft
Mostly Cloudy 4800 ft
Mostly Cloudy 6500 ft
Heat Index 79 °F
Dew Point 70 °F
Humidity 79%
Rainfall in
Snow Depth Not available.
UV 0 out of 12
Pollen 6.80 out of 12
Air Quality Not available.
Flu Activity Not available.
SPECI KBKL 300504Z AUTO 26013KT 10SM FEW018 BKN048 BKN065 26/23 A2991 RMK AO2 T02560228 TSNO $

More Conditions Fewer Conditions

Pressure 29.91 in
Visibility 10.0 miles
Clouds Few 1800 ft
Mostly Cloudy 4800 ft
Mostly Cloudy 6500 ft
Heat Index 79 °F
Dew Point 70 °F
Humidity 79%
Rainfall in
Snow Depth Not available.
UV 0 out of 12
Pollen 6.80 out of 12
Air Quality Not available.
Flu Activity Not available.
SPECI KBKL 300504Z AUTO 26013KT 10SM FEW018 BKN048 BKN065 26/23 A2991 RMK AO2 T02560228 TSNO $

More Conditions Fewer Conditions

10-Day Weather Forecast

×

Almanac

Astronomy

Jul. 30, 2015 Rise Set
Actual Time
Civil Twilight
Nautical Twilight
Astronomical Twilight
Moon
Length of Visible Light
Length of Day
Tomorrow will be .
, % of the Moon is Illuminated

Today's Extremes

State Highs State Lows

Community

WunderPhotos

Upload Photos

1,842,312 photos uploaded!

WunderBlogs® & News

Nearby

Air Quality

  Air Quality AQ Index Pollutant
Not available.

Snow Depth

Station Depth Elevation

Earthquake Activity

City Distance Mag. Time & Date
Minimum magnitude displayed is 2.5.

Coastal Water Temperatures

Place Temperature

Stations

Nearby Weather Stations

Station Location Temp. Windchill Dew Point Humidity Wind Precip. Elev Updated Type